Time;durP1;ratioP1;P1;durP2;ratioP2;P2;SDS_P1;SDS_P2;PMS_P1;PMS_P2;Temp;Humidity;BMP_temperature;BMP_pressure;BME280_temperature;BME280_humidity;BME280_pressure;Samples;Min_cycle;Max_cycle;Signal;HPM_P1;HPM_P2
2021/04/28 00:01:25;;;;;;;9.08;3.47;;;;;;;1.83;49.85;96347.00;1744107;82;21794;-82
2021/04/28 00:03:53;;;;;;;7.97;3.92;;;;;;;1.83;50.06;96348.31;1720252;83;21125;-83
2021/04/28 00:06:20;;;;;;;8.63;3.15;;;;;;;1.61;50.01;96346.80;1719618;83;21224;-83
2021/04/28 00:08:47;;;;;;;6.00;3.52;;;;;;;1.61;50.55;96342.88;1750437;80;21138;-83
2021/04/28 00:11:15;;;;;;;7.75;3.90;;;;;;;1.55;50.12;96340.69;1715388;82;21509;-83
2021/04/28 00:13:42;;;;;;;7.67;4.50;;;;;;;1.62;49.99;96341.34;1710847;83;21186;-83
2021/04/28 00:16:09;;;;;;;6.65;4.33;;;;;;;1.67;49.92;96341.96;1716438;83;21605;-83
2021/04/28 00:18:36;;;;;;;9.73;4.45;;;;;;;1.71;49.84;96336.07;1747525;80;21137;-83
2021/04/28 00:21:04;;;;;;;10.90;4.40;;;;;;;1.76;49.65;96334.86;1727766;82;21123;-83
2021/04/28 00:23:31;;;;;;;8.03;4.30;;;;;;;1.84;49.48;96336.86;1742533;80;21114;-83
2021/04/28 00:25:58;;;;;;;9.73;4.60;;;;;;;1.95;49.12;96335.52;1743018;81;21310;-83
2021/04/28 00:28:25;;;;;;;7.45;4.35;;;;;;;2.02;49.08;96334.09;1753538;80;21162;-83
2021/04/28 00:30:52;;;;;;;7.92;4.30;;;;;;;2.02;49.14;96330.17;1772112;80;21101;-82
2021/04/28 00:33:19;;;;;;;8.13;4.35;;;;;;;1.97;49.60;96326.13;1786101;79;21527;-83
2021/04/28 00:35:46;;;;;;;7.72;3.98;;;;;;;1.92;49.86;96328.13;1781138;79;21136;-83
2021/04/28 00:38:13;;;;;;;7.62;4.28;;;;;;;1.78;50.19;96315.83;1782802;79;21115;-83
2021/04/28 00:40:42;;;;;;;6.75;4.12;;;;;;;1.84;50.61;96336.86;1789254;79;21265;-83
2021/04/28 00:43:10;;;;;;;11.10;5.22;;;;;;;1.76;50.80;96330.94;1783609;79;21572;-82
2021/04/28 00:45:38;;;;;;;6.55;4.50;;;;;;;1.68;50.94;96335.70;1777937;80;21147;-83
2021/04/28 00:48:09;;;;;;;7.70;4.22;;;;;;;1.55;50.76;96339.38;1761072;80;21139;-82
2021/04/28 00:50:41;;;;;;;7.62;4.20;;;;;;;1.55;50.64;96336.77;1736261;82;21082;-82
2021/04/28 00:53:12;;;;;;;10.95;5.00;;;;;;;1.59;50.68;96339.70;1725950;82;21514;-83
2021/04/28 00:55:40;;;;;;;9.28;4.50;;;;;;;1.59;50.50;96344.94;1743897;81;21491;-83
2021/04/28 00:58:08;;;;;;;9.45;4.30;;;;;;;1.59;50.72;96341.81;1706245;83;21135;-82
2021/04/28 01:00:37;;;;;;;9.53;5.10;;;;;;;1.60;50.87;96339.48;1731754;82;21493;-83
2021/04/28 01:03:05;;;;;;;8.65;4.40;;;;;;;1.61;50.53;96342.37;1717501;83;21478;-83
2021/04/28 01:05:33;;;;;;;9.13;5.12;;;;;;;1.66;50.71;96339.86;1782541;80;21132;-83
2021/04/28 01:08:01;;;;;;;9.45;4.95;;;;;;;1.68;50.36;96345.65;1773357;80;21135;-82
2021/04/28 01:10:35;;;;;;;10.00;4.97;;;;;;;1.73;50.19;96340.55;1766792;79;21143;-83
2021/04/28 01:13:05;;;;;;;7.87;4.30;;;;;;;1.79;50.10;96334.40;1767269;80;21257;-83
2021/04/28 01:15:35;;;;;;;10.00;4.65;;;;;;;1.85;50.01;96343.16;1781119;80;21111;-83
2021/04/28 01:18:04;;;;;;;8.53;4.97;;;;;;;1.85;50.18;96343.67;1778119;80;21139;-83
2021/04/28 01:20:36;;;;;;;10.23;4.78;;;;;;;1.81;49.98;96335.98;1770457;79;21515;-82
2021/04/28 01:23:05;;;;;;;7.42;4.40;;;;;;;1.78;50.44;96341.16;1777306;80;21154;-83
2021/04/28 01:25:33;;;;;;;10.28;5.55;;;;;;;1.73;50.22;96339.76;1771675;80;21133;-82
2021/04/28 01:28:14;;;;;;;9.28;5.12;;;;;;;1.74;50.16;96334.81;1738602;81;21656;-83
2021/04/28 01:30:59;;;;;;;10.82;4.85;;;;;;;1.69;50.42;96339.91;1748062;80;21182;-83
2021/04/28 01:33:44;;;;;;;8.75;5.17;;;;;;;1.61;50.42;96342.37;1785989;80;21167;-83
2021/04/28 01:36:19;;;;;;;10.80;4.67;;;;;;;1.60;50.62;96342.09;1783623;80;21561;-82
2021/04/28 01:38:53;;;;;;;10.72;5.35;;;;;;;1.52;50.76;96342.93;1772612;80;21138;-82
2021/04/28 01:41:22;;;;;;;9.03;4.55;;;;;;;1.40;50.89;96347.63;1777782;80;21174;-82
2021/04/28 01:43:50;;;;;;;10.20;5.00;;;;;;;1.40;50.89;96347.63;1784607;80;21151;-82
2021/04/28 01:46:18;;;;;;;10.38;5.08;;;;;;;1.39;50.93;96347.86;1766742;80;21144;-82
2021/04/28 01:48:46;;;;;;;9.00;4.37;;;;;;;1.37;51.10;96338.95;1776947;79;21112;-82
2021/04/28 01:51:16;;;;;;;8.30;4.37;;;;;;;1.38;51.12;96343.66;1755331;81;21139;-82
2021/04/28 01:53:44;;;;;;;8.50;4.55;;;;;;;1.37;51.12;96340.25;1780622;80;21096;-82
2021/04/28 01:56:12;;;;;;;9.85;4.83;;;;;;;1.37;51.26;96340.77;1772716;80;21116;-82
2021/04/28 01:58:41;;;;;;;10.08;4.62;;;;;;;1.37;51.18;96336.34;1776733;80;21112;-82
2021/04/28 02:01:10;;;;;;;9.70;4.92;;;;;;;1.38;51.24;96333.22;1745642;80;21106;-82
2021/04/28 02:03:38;;;;;;;8.10;4.33;;;;;;;1.38;51.18;96324.87;1781797;80;21536;-82
2021/04/28 02:06:07;;;;;;;9.33;4.72;;;;;;;1.33;51.70;96326.58;1771226;79;21180;-82
2021/04/28 02:08:35;;;;;;;8.43;5.00;;;;;;;1.28;52.06;96326.48;1727409;82;21110;-82
2021/04/28 02:11:04;;;;;;;10.38;4.33;;;;;;;1.15;52.56;96320.45;1738743;82;21187;-82
2021/04/28 02:13:37;;;;;;;8.95;4.50;;;;;;;1.02;53.03;96329.78;1739986;82;21071;-82
2021/04/28 02:16:05;;;;;;;9.43;4.90;;;;;;;0.95;53.37;96326.47;1737592;82;21446;-82
2021/04/28 02:18:33;;;;;;;10.70;5.35;;;;;;;0.90;53.21;96326.35;1721340;83;21213;-82
2021/04/28 02:21:04;;;;;;;9.23;5.00;;;;;;;0.80;53.05;96310.44;1723803;83;21130;-82
2021/04/28 02:23:40;;;;;;;9.98;4.92;;;;;;;0.94;53.02;96325.39;1714642;83;21198;-82
2021/04/28 02:26:07;;;;;;;9.75;5.17;;;;;;;0.96;53.51;96315.00;1728305;82;21261;-82
2021/04/28 02:28:36;;;;;;;12.37;5.10;;;;;;;0.95;53.53;96317.33;1717107;83;21529;-82
2021/04/28 02:31:04;;;;;;;8.18;4.05;;;;;;;0.85;53.94;96312.68;1763171;80;21080;-82
2021/04/28 02:33:34;;;;;;;12.05;5.55;;;;;;;0.84;54.40;96305.84;1714639;83;21136;-82
2021/04/28 02:36:03;;;;;;;8.83;5.30;;;;;;;0.92;54.07;96311.26;1752203;80;21118;-82
2021/04/28 02:38:42;;;;;;;8.83;5.10;;;;;;;1.00;53.75;96306.23;1716921;82;21110;-82
2021/04/28 02:41:09;;;;;;;13.25;6.20;;;;;;;1.05;53.62;96309.75;1733459;82;21137;-82
2021/04/28 02:43:38;;;;;;;10.28;5.00;;;;;;;1.04;53.64;96308.67;1743624;81;21138;-82
2021/04/28 02:46:10;;;;;;;8.68;4.80;;;;;;;0.97;53.80;96306.16;1731856;82;21474;-82
2021/04/28 02:48:39;;;;;;;11.38;4.37;;;;;;;1.00;54.11;96303.12;1740043;81;21191;-82
2021/04/28 02:51:07;;;;;;;6.53;4.37;;;;;;;1.00;54.58;96308.34;1714903;81;21615;-82
2021/04/28 02:53:36;;;;;;;8.10;4.20;;;;;;;0.96;54.51;96309.78;1696886;83;21593;-82
2021/04/28 02:56:04;;;;;;;9.35;5.10;;;;;;;0.91;54.57;96309.67;1729321;82;21130;-82
2021/04/28 02:58:32;;;;;;;13.28;4.95;;;;;;;0.83;54.91;96311.29;1738654;82;21570;-82
2021/04/28 03:01:01;;;;;;;9.63;4.62;;;;;;;0.78;54.43;96309.87;1736056;81;21146;-82
2021/04/28 03:03:29;;;;;;;8.40;4.87;;;;;;;0.87;54.13;96308.54;1715664;82;21187;-82
2021/04/28 03:05:56;;;;;;;7.83;4.70;;;;;;;0.94;54.17;96316.25;1740002;81;21156;-82
2021/04/28 03:08:24;;;;;;;11.05;4.65;;;;;;;0.99;54.11;96312.48;1750415;81;21119;-82
2021/04/28 03:10:53;;;;;;;9.15;4.92;;;;;;;0.98;54.43;96314.27;1745770;81;21086;-82
2021/04/28 03:13:21;;;;;;;9.33;4.55;;;;;;;0.95;53.96;96321.25;1736050;81;21494;-82
2021/04/28 03:15:49;;;;;;;6.90;4.42;;;;;;;0.92;53.95;96326.92;1715034;83;21151;-82
2021/04/28 03:18:17;;;;;;;7.50;4.78;;;;;;;0.94;53.88;96318.35;1740995;82;21126;-82
2021/04/28 03:20:47;;;;;;;10.68;5.10;;;;;;;0.98;53.95;96317.39;1755141;81;21135;-82
2021/04/28 03:23:15;;;;;;;7.85;4.65;;;;;;;0.96;53.91;96318.13;1717829;83;21096;-82
2021/04/28 03:25:43;;;;;;;9.85;4.30;;;;;;;0.98;54.02;96322.61;1747114;80;21151;-82
2021/04/28 03:28:11;;;;;;;7.92;4.20;;;;;;;0.97;54.38;96313.19;1745472;80;21103;-82
2021/04/28 03:30:38;;;;;;;10.25;4.45;;;;;;;0.90;54.55;96314.61;1714219;83;21207;-82
2021/04/28 03:33:05;;;;;;;7.33;4.33;;;;;;;0.86;54.22;96312.17;1754350;80;21079;-82
2021/04/28 03:35:33;;;;;;;8.15;4.62;;;;;;;0.95;54.08;96319.14;1742279;81;21124;-82
2021/04/28 03:38:00;;;;;;;9.00;4.10;;;;;;;1.05;54.05;96306.34;1706821;83;21174;-82
2021/04/28 03:40:27;;;;;;;8.65;4.97;;;;;;;1.16;53.79;96308.98;1726326;82;21127;-82
2021/04/28 03:42:54;;;;;;;10.38;4.37;;;;;;;1.26;53.58;96312.31;1737537;81;21122;-82
2021/04/28 03:45:21;;;;;;;9.98;4.60;;;;;;;1.34;53.61;96315.11;1724214;82;21493;-82
2021/04/28 03:47:49;;;;;;;7.90;4.37;;;;;;;1.35;53.46;96316.70;1726577;81;21100;-82
2021/04/28 03:50:16;;;;;;;7.15;4.20;;;;;;;1.43;53.32;96315.06;1724227;81;21163;-82
2021/04/28 03:52:43;;;;;;;9.25;4.45;;;;;;;1.44;53.16;96308.82;1745134;80;21472;-82
2021/04/28 03:55:12;;;;;;;6.25;3.65;;;;;;;1.44;53.16;96308.82;1748211;80;21294;-82
2021/04/28 03:57:40;;;;;;;9.10;4.62;;;;;;;1.60;53.15;96321.19;1711173;83;21125;-82
2021/04/28 04:00:09;;;;;;;7.12;4.03;;;;;;;1.63;52.99;96332.48;1739158;80;21110;-82
2021/04/28 04:02:36;;;;;;;7.30;4.62;;;;;;;1.66;52.78;96317.65;1715374;83;21260;-82
2021/04/28 04:05:05;;;;;;;7.85;4.22;;;;;;;1.83;52.55;96335.23;1736568;82;21507;-82
2021/04/28 04:07:32;;;;;;;8.95;4.30;;;;;;;1.93;52.24;96331.03;1731346;82;21162;-82
2021/04/28 04:09:59;;;;;;;7.42;4.45;;;;;;;2.06;52.05;96339.93;1724480;81;21323;-82
2021/04/28 04:12:26;;;;;;;7.17;3.98;;;;;;;2.20;51.84;96341.77;1720832;82;21169;-82
2021/04/28 04:14:53;;;;;;;6.58;4.08;;;;;;;2.35;51.52;96333.43;1725827;82;21182;-82
2021/04/28 04:17:20;;;;;;;6.75;3.72;;;;;;;2.50;51.42;96340.25;1732847;82;21186;-82
2021/04/28 04:19:47;;;;;;;7.87;4.12;;;;;;;2.65;51.10;96333.20;1732164;82;21174;-82
2021/04/28 04:22:14;;;;;;;6.67;4.00;;;;;;;2.76;50.84;96336.80;1727191;82;21175;-82
2021/04/28 04:24:41;;;;;;;8.75;4.20;;;;;;;2.81;50.62;96336.36;1730486;82;21158;-82
2021/04/28 04:27:09;;;;;;;7.87;4.15;;;;;;;2.98;50.80;96338.52;1713716;82;21123;-82
2021/04/28 04:29:36;;;;;;;9.40;4.58;;;;;;;3.22;50.52;96344.38;1718690;81;21138;-82
2021/04/28 04:32:03;;;;;;;8.38;4.85;;;;;;;3.46;50.50;96339.78;1731331;82;21125;-82
2021/04/28 04:34:30;;;;;;;8.38;4.05;;;;;;;4.35;49.76;96342.27;1712430;83;21164;-82
2021/04/28 04:36:57;;;;;;;9.00;4.30;;;;;;;6.24;48.90;96340.16;1720542;81;21499;-82
2021/04/28 04:39:23;;;;;;;7.92;4.47;;;;;;;8.07;46.06;96336.88;1733449;81;21523;-82
2021/04/28 04:41:50;;;;;;;10.58;4.85;;;;;;;9.67;45.85;96331.20;1719929;83;21140;-82
2021/04/28 04:44:17;;;;;;;10.15;4.50;;;;;;;10.68;43.28;96327.45;1722371;82;21203;-82
2021/04/28 04:46:45;;;;;;;7.12;3.83;;;;;;;11.15;40.77;96323.11;1717726;82;21138;-82
2021/04/28 04:49:12;;;;;;;6.67;3.90;;;;;;;12.02;39.12;96328.34;1743992;81;21488;-82
2021/04/28 04:51:40;;;;;;;7.47;4.25;;;;;;;12.66;38.55;96323.88;1720961;82;21180;-82
2021/04/28 04:54:08;;;;;;;7.03;3.98;;;;;;;13.40;36.53;96327.06;1725942;82;21156;-82
2021/04/28 04:56:35;;;;;;;7.80;4.17;;;;;;;14.15;36.98;96322.77;1714757;83;21214;-82
2021/04/28 04:59:03;;;;;;;5.70;3.52;;;;;;;14.64;32.73;96324.39;1726617;81;21558;-82
2021/04/28 05:01:30;;;;;;;7.47;3.90;;;;;;;14.96;33.28;96316.50;1718338;82;21578;-83
2021/04/28 05:03:57;;;;;;;6.10;4.10;;;;;;;15.40;32.50;96316.73;1727032;83;21082;-82
2021/04/28 05:06:24;;;;;;;8.10;4.22;;;;;;;15.85;31.31;96319.03;1721118;83;21619;-82
2021/04/28 05:08:52;;;;;;;6.60;3.95;;;;;;;16.21;30.76;96313.27;1715916;83;21122;-82
2021/04/28 05:11:19;;;;;;;6.92;4.30;;;;;;;17.00;30.14;96320.31;1735102;82;21419;-83
2021/04/28 05:13:46;;;;;;;7.40;3.85;;;;;;;17.67;31.45;96313.92;1725983;82;21510;-83
2021/04/28 05:16:13;;;;;;;5.53;4.10;;;;;;;18.43;29.51;96317.42;1739748;81;21542;-83
2021/04/28 05:18:42;;;;;;;7.87;4.20;;;;;;;18.99;29.99;96316.28;1743475;82;21145;-83
2021/04/28 05:21:09;;;;;;;6.10;3.87;;;;;;;20.17;29.81;96308.19;1708297;83;21499;-82
2021/04/28 05:23:36;;;;;;;6.40;3.98;;;;;;;21.17;28.46;96309.91;1725362;83;21139;-83
2021/04/28 05:26:03;;;;;;;6.03;4.00;;;;;;;22.03;27.58;96309.65;1719650;81;21137;-83
2021/04/28 05:28:30;;;;;;;6.60;4.25;;;;;;;21.44;25.39;96304.13;1713673;83;21207;-83
2021/04/28 05:30:57;;;;;;;7.42;4.12;;;;;;;20.30;23.65;96304.28;1716637;83;21137;-83
2021/04/28 05:33:24;;;;;;;8.48;4.40;;;;;;;19.03;22.79;96311.81;1741456;82;21158;-83
2021/04/28 05:35:52;;;;;;;7.30;4.00;;;;;;;18.24;23.82;96314.52;1744834;81;21480;-83
2021/04/28 05:38:19;;;;;;;8.03;3.90;;;;;;;18.33;24.20;96314.64;1727434;82;21525;-83
2021/04/28 05:40:46;;;;;;;5.58;3.47;;;;;;;18.50;24.53;96312.29;1689796;83;21201;-83
2021/04/28 05:43:13;;;;;;;8.60;3.92;;;;;;;18.90;24.89;96309.70;1755835;80;21127;-83
2021/04/28 05:45:43;;;;;;;6.92;3.65;;;;;;;19.70;24.23;96308.11;1720009;83;21189;-83
2021/04/28 05:48:13;;;;;;;6.30;4.30;;;;;;;20.21;23.75;96300.19;1745678;80;21514;-83
2021/04/28 05:50:42;;;;;;;7.00;3.90;;;;;;;19.98;23.21;96299.42;1719016;82;21168;-83
2021/04/28 05:53:11;;;;;;;6.10;3.72;;;;;;;19.85;23.28;96301.44;1712400;83;21194;-83
2021/04/28 05:55:39;;;;;;;6.00;3.33;;;;;;;19.71;23.69;96297.59;1752796;81;21477;-83
2021/04/28 05:58:08;;;;;;;6.62;3.85;;;;;;;20.07;23.31;96300.05;1757021;81;21143;-83
2021/04/28 06:00:36;;;;;;;8.13;4.28;;;;;;;19.88;23.04;96301.30;1749954;80;21141;-83
2021/04/28 06:03:04;;;;;;;5.25;3.58;;;;;;;20.72;24.48;96299.13;1748172;81;21125;-83
2021/04/28 06:05:32;;;;;;;6.35;4.12;;;;;;;21.70;22.65;96297.30;1721180;83;21115;-83
2021/04/28 06:07:59;;;;;;;8.73;4.28;;;;;;;21.54;22.22;96281.20;1729278;82;21576;-83
2021/04/28 06:10:26;;;;;;;7.22;4.22;;;;;;;21.88;21.97;96292.99;1743084;80;21103;-83
2021/04/28 06:12:54;;;;;;;5.30;3.67;;;;;;;22.60;23.23;96296.31;1731663;82;21513;-81
2021/04/28 06:15:21;;;;;;;9.00;4.58;;;;;;;24.11;22.04;96295.88;1732106;82;21551;-81
2021/04/28 06:17:49;;;;;;;7.25;4.67;;;;;;;24.76;21.25;96301.23;1744556;81;21091;-81
2021/04/28 06:20:18;;;;;;;7.97;4.60;;;;;;;25.05;20.07;96296.78;1724673;82;21214;-82
2021/04/28 06:22:46;;;;;;;6.15;3.98;;;;;;;25.65;21.15;96292.20;1739659;82;21495;-81
2021/04/28 06:25:16;;;;;;;5.25;4.00;;;;;;;26.01;19.83;96288.98;1788286;80;21131;-81
2021/04/28 06:27:44;;;;;;;;;;;;;;;25.98;19.86;96287.05;1793223;80;21154;-81
2021/04/28 06:30:13;;;;;;;6.08;3.98;;;;;;;26.26;19.86;96289.02;1784980;80;20176;-81
2021/04/28 06:32:40;;;;;;;5.00;3.52;;;;;;;26.80;19.84;96286.48;1781576;80;21115;-81
2021/04/28 06:35:10;;;;;;;5.00;3.47;;;;;;;26.86;19.01;96282.77;1753235;81;21132;-81
2021/04/28 06:37:38;;;;;;;3.98;2.80;;;;;;;26.22;17.90;96276.80;1716202;82;21134;-81
2021/04/28 06:40:10;;;;;;;5.33;3.00;;;;;;;26.26;18.36;96278.15;1737877;81;21227;-81
2021/04/28 06:42:38;;;;;;;5.40;3.15;;;;;;;26.65;17.45;96273.30;1727673;82;21495;-81
2021/04/28 06:45:07;;;;;;;5.67;3.40;;;;;;;26.18;17.30;96284.73;1734358;81;21482;-81
2021/04/28 06:47:36;;;;;;;6.28;2.77;;;;;;;27.01;18.52;96269.35;1734114;81;21110;-82
2021/04/28 06:50:05;;;;;;;4.65;3.30;;;;;;;28.88;18.16;96271.33;1735236;82;21136;-81
2021/04/28 06:52:33;;;;;;;4.78;2.90;;;;;;;29.35;16.77;96271.56;1737348;81;21168;-81
2021/04/28 06:55:00;;;;;;;4.05;3.12;;;;;;;30.20;17.20;96264.78;1716527;82;21158;-82
2021/04/28 06:57:27;;;;;;;5.00;3.17;;;;;;;29.77;16.99;96266.76;1756849;81;21106;-82
2021/04/28 06:59:54;;;;;;;4.92;3.60;;;;;;;31.25;15.47;96275.09;1729225;81;21448;-82
2021/04/28 07:02:21;;;;;;;5.72;3.27;;;;;;;31.47;16.90;96272.67;1734306;81;21158;-81
2021/04/28 07:04:48;;;;;;;5.22;3.65;;;;;;;31.92;14.56;96260.38;1719307;82;21462;-82
2021/04/28 07:07:15;;;;;;;6.50;3.72;;;;;;;30.55;14.16;96262.07;1702609;83;21179;-82
2021/04/28 07:09:42;;;;;;;6.97;3.52;;;;;;;29.81;16.15;96255.17;1753164;81;21493;-82
2021/04/28 07:12:09;;;;;;;5.75;3.37;;;;;;;30.51;14.69;96260.74;1727515;81;21086;-82
2021/04/28 07:14:36;;;;;;;5.70;3.67;;;;;;;29.24;14.37;96262.73;1733961;81;21106;-82
2021/04/28 07:17:03;;;;;;;5.35;3.12;;;;;;;28.26;15.94;96255.88;1726310;82;21086;-82
2021/04/28 07:19:31;;;;;;;5.75;4.47;;;;;;;29.37;15.65;96258.28;1728133;81;21122;-82
2021/04/28 07:21:58;;;;;;;4.78;3.60;;;;;;;29.32;15.72;96258.73;1714691;83;21132;-82
2021/04/28 07:24:25;;;;;;;5.67;4.15;;;;;;;29.68;14.55;96258.29;1728356;82;21178;-82
2021/04/28 07:26:53;;;;;;;6.53;4.08;;;;;;;29.23;16.17;96261.95;1728411;82;21111;-82
2021/04/28 07:29:22;;;;;;;8.03;4.30;;;;;;;30.84;17.01;96260.40;1709413;81;21329;-82
2021/04/28 07:31:50;;;;;;;5.92;3.40;;;;;;;31.87;14.84;96261.67;1728377;82;21122;-82
2021/04/28 07:34:17;;;;;;;5.20;3.80;;;;;;;32.46;15.53;96266.94;1721730;83;21503;-82
2021/04/28 07:36:45;;;;;;;4.37;3.72;;;;;;;31.66;13.48;96267.58;1749555;80;21517;-82
2021/04/28 07:39:13;;;;;;;5.35;4.00;;;;;;;31.59;15.60;96267.14;1711253;81;21553;-82
2021/04/28 07:41:40;;;;;;;8.93;7.78;;;;;;;31.84;13.33;96263.89;1742206;81;21287;-82
2021/04/28 07:44:07;;;;;;;8.08;6.33;;;;;;;31.70;15.22;96270.44;1718018;83;21148;-82
2021/04/28 07:46:35;;;;;;;8.13;6.05;;;;;;;32.26;13.27;96268.98;1730682;80;21126;-83
2021/04/28 07:49:04;;;;;;;8.05;6.58;;;;;;;31.40;14.70;96267.95;1720851;82;21153;-82
2021/04/28 07:51:35;;;;;;;5.97;4.40;;;;;;;32.50;15.26;96270.96;1717553;83;21522;-83
2021/04/28 07:54:03;;;;;;;5.55;4.22;;;;;;;33.78;13.62;96263.34;1718048;83;21079;-83
2021/04/28 07:56:30;;;;;;;5.90;4.63;;;;;;;32.03;12.48;96270.51;1724119;82;21118;-82
2021/04/28 07:58:58;;;;;;;4.95;4.42;;;;;;;32.19;13.52;96267.77;1728335;82;21497;-83
2021/04/28 08:01:25;;;;;;;4.95;4.20;;;;;;;32.95;14.55;96267.50;1709545;83;21160;-83
2021/04/28 08:03:52;;;;;;;5.22;4.00;;;;;;;34.15;14.61;96257.72;1742972;80;21123;-83
2021/04/28 08:06:19;;;;;;;5.50;4.37;;;;;;;34.91;12.57;96264.30;1753323;80;21607;-83
2021/04/28 08:08:48;;;;;;;5.60;4.30;;;;;;;33.51;13.67;96263.02;1744028;81;21162;-83
2021/04/28 08:11:15;;;;;;;4.80;3.95;;;;;;;33.67;13.45;96258.03;1765254;80;21147;-82
2021/04/28 08:13:43;;;;;;;5.92;4.55;;;;;;;34.66;14.29;96258.26;1743699;81;21583;-83
2021/04/28 08:16:10;;;;;;;6.25;4.58;;;;;;;33.46;12.14;96248.42;1752973;80;21509;-82
2021/04/28 08:18:38;;;;;;;7.60;5.03;;;;;;;33.00;13.13;96255.97;1757742;80;21548;-83
2021/04/28 08:21:05;;;;;;;5.85;4.55;;;;;;;31.45;13.57;96249.64;1754478;80;21114;-82
2021/04/28 08:23:32;;;;;;;6.67;4.85;;;;;;;32.73;14.65;96248.03;1744634;80;21281;-82
2021/04/28 08:26:02;;;;;;;6.53;5.50;;;;;;;34.08;14.47;96254.44;1752125;80;21123;-82
2021/04/28 08:28:30;;;;;;;9.05;5.03;;;;;;;32.83;12.87;96262.72;1769335;80;21123;-82
2021/04/28 08:30:57;;;;;;;7.25;5.35;;;;;;;33.37;13.90;96253.20;1758476;80;21500;-83
2021/04/28 08:33:24;;;;;;;9.93;5.25;;;;;;;34.21;14.16;96253.21;1747490;81;21196;-82
2021/04/28 08:35:52;;;;;;;5.95;4.90;;;;;;;33.57;12.67;96262.02;1737589;81;21289;-82
2021/04/28 08:38:19;;;;;;;6.80;5.30;;;;;;;33.26;13.53;96245.84;1750908;80;21154;-82
2021/04/28 08:40:47;;;;;;;7.60;5.20;;;;;;;33.14;13.49;96243.82;1767330;80;21487;-83
2021/04/28 08:43:14;;;;;;;8.55;5.15;;;;;;;33.54;13.33;96245.04;1754513;79;21117;-82
2021/04/28 08:45:41;;;;;;;6.95;4.60;;;;;;;33.98;13.75;96240.41;1742484;81;21115;-82
2021/04/28 08:48:08;;;;;;;5.87;4.83;;;;;;;34.29;13.31;96237.22;1735212;80;21241;-82
2021/04/28 08:50:36;;;;;;;7.40;4.35;;;;;;;34.24;13.20;96245.44;1745212;81;21133;-82
2021/04/28 08:53:03;;;;;;;6.00;4.47;;;;;;;34.64;13.61;96235.91;1744122;81;21152;-82
2021/04/28 08:55:30;;;;;;;5.45;4.50;;;;;;;34.24;13.44;96238.56;1752808;80;21130;-82
2021/04/28 08:57:58;;;;;;;7.70;4.40;;;;;;;34.45;13.27;96240.47;1751738;80;21167;-82
2021/04/28 09:00:25;;;;;;;7.45;5.17;;;;;;;34.19;13.68;96239.10;1746289;80;21266;-82
2021/04/28 09:02:59;;;;;;;8.18;4.83;;;;;;;34.15;13.15;96239.06;1738584;81;21121;-82
2021/04/28 09:05:31;;;;;;;6.45;4.12;;;;;;;34.21;14.08;96236.70;1753634;81;21134;-82
2021/04/28 09:08:00;;;;;;;6.67;4.95;;;;;;;32.44;11.35;96239.16;1764553;80;21574;-83
2021/04/28 09:10:30;;;;;;;9.60;5.15;;;;;;;29.92;13.38;96244.09;1739284;81;21509;-83
2021/04/28 09:13:05;;;;;;;7.08;4.50;;;;;;;29.56;14.89;96239.16;1778751;80;21099;-83
2021/04/28 09:15:45;;;;;;;8.60;4.67;;;;;;;29.50;15.18;96232.59;1733767;81;21091;-83
2021/04/28 09:18:15;;;;;;;6.95;4.90;;;;;;;28.63;15.60;96229.84;1758483;80;21271;-83
2021/04/28 09:20:51;;;;;;;;;;;;;;;26.88;14.98;96236.91;1764972;80;21152;-83
2021/04/28 09:23:34;;;;;;;7.72;4.72;;;;;;;22.79;18.02;96229.98;1752410;81;20153;-84
2021/04/28 09:26:03;;;;;;;9.50;5.28;;;;;;;19.65;20.63;96229.81;1747116;80;21491;-84
2021/04/28 09:28:38;;;;;;;7.65;4.55;;;;;;;18.52;22.53;96232.76;1746017;80;21185;-84
2021/04/28 09:31:12;;;;;;;7.17;4.65;;;;;;;18.58;22.48;96230.05;1748649;80;21150;-84
2021/04/28 09:33:49;;;;;;;7.87;4.80;;;;;;;18.83;23.07;96220.06;1747660;81;21162;-84
2021/04/28 09:36:36;;;;;;;7.08;4.55;;;;;;;18.85;22.87;96216.48;1740074;81;21136;-84
2021/04/28 09:39:08;;;;;;;6.50;3.83;;;;;;;18.52;23.21;96212.06;1747856;81;21196;-83
2021/04/28 09:41:42;;;;;;;5.58;3.15;;;;;;;17.70;24.44;96208.73;1747335;80;21142;-83
2021/04/28 09:44:30;;;;;;;5.35;3.35;;;;;;;17.48;24.32;96206.67;1745026;81;21181;-84
2021/04/28 09:47:22;;;;;;;3.60;2.70;;;;;;;17.25;24.21;96195.32;1736823;80;21156;-84
2021/04/28 09:49:58;;;;;;;5.03;2.87;;;;;;;17.54;25.08;96191.14;1753363;80;21502;-84
2021/04/28 09:52:42;;;;;;;6.47;3.30;;;;;;;17.79;24.52;96188.75;1746566;80;21504;-84
2021/04/28 09:55:13;;;;;;;6.90;3.22;;;;;;;17.84;24.62;96189.64;1742409;81;21163;-84
2021/04/28 09:57:45;;;;;;;5.95;2.87;;;;;;;17.71;24.36;96185.61;1746161;81;21154;-84
2021/04/28 10:00:27;;;;;;;4.45;2.90;;;;;;;17.70;24.36;96186.72;1736008;80;21168;-83
2021/04/28 10:03:05;;;;;;;5.08;2.70;;;;;;;17.72;25.15;96172.42;1699712;83;21495;-84
2021/04/28 10:05:41;;;;;;;4.17;2.90;;;;;;;17.29;24.31;96188.18;1744590;81;21119;-84
2021/04/28 10:08:20;;;;;;;5.50;3.30;;;;;;;16.50;24.80;96181.38;1711163;83;21121;-83
2021/04/28 10:10:52;;;;;;;6.80;3.20;;;;;;;16.07;25.28;96176.87;1712988;83;21140;-84
2021/04/28 10:13:20;;;;;;;4.85;2.90;;;;;;;16.38;25.21;96173.28;1716377;83;21147;-84
2021/04/28 10:15:47;;;;;;;4.65;2.80;;;;;;;16.61;25.44;96172.41;1741622;81;21115;-84
2021/04/28 10:18:16;;;;;;;6.22;2.65;;;;;;;16.85;24.90;96165.83;1716995;83;21132;-84
2021/04/28 10:20:46;;;;;;;6.00;3.62;;;;;;;16.52;24.96;96155.08;1738312;82;21172;-83
2021/04/28 10:23:16;;;;;;;4.12;2.95;;;;;;;16.67;25.11;96150.23;1714733;83;21156;-84
2021/04/28 10:25:49;;;;;;;;;;;;;;;16.86;25.19;96151.34;1751752;80;21080;-83
2021/04/28 10:28:17;;;;;;;4.78;3.22;;;;;;;17.17;26.12;96154.10;1714943;83;20379;-84
2021/04/28 10:30:50;;;;;;;4.83;2.87;;;;;;;17.35;25.69;96156.06;1740529;80;21523;-84
2021/04/28 10:33:24;;;;;;;4.75;2.60;;;;;;;16.94;24.30;96148.36;1710833;82;21146;-84
2021/04/28 10:35:53;;;;;;;6.28;3.00;;;;;;;16.15;24.88;96147.94;1722037;82;21131;-84
2021/04/28 10:38:26;;;;;;;5.15;2.62;;;;;;;15.72;25.82;96143.62;1725852;82;21596;-84
2021/04/28 10:40:55;;;;;;;5.62;3.02;;;;;;;16.02;26.09;96132.36;1718470;81;21479;-84
2021/04/28 10:43:36;;;;;;;4.25;2.62;;;;;;;15.92;26.25;96137.55;1715941;83;21250;-84
2021/04/28 10:46:21;;;;;;;4.70;3.05;;;;;;;15.72;25.98;96143.62;1714276;82;21127;-83
2021/04/28 10:48:48;;;;;;;4.53;2.98;;;;;;;15.48;25.62;96142.04;1715052;81;21125;-84
2021/04/28 10:51:39;;;;;;;9.28;3.58;;;;;;;15.62;26.49;96147.45;1714277;83;21131;-84
2021/04/28 10:54:25;;;;;;;7.78;3.12;;;;;;;15.86;26.53;96148.73;1721534;82;21123;-84
2021/04/28 10:57:06;;;;;;;6.33;3.70;;;;;;;16.25;26.34;96142.21;1720029;82;21498;-85
2021/04/28 10:59:41;;;;;;;6.08;3.42;;;;;;;16.53;24.93;96137.91;1739324;82;21134;-85
2021/04/28 11:02:15;;;;;;;6.83;3.05;;;;;;;16.52;26.74;96124.86;1700187;83;21148;-85
2021/04/28 11:04:46;;;;;;;6.00;3.27;;;;;;;16.84;26.22;96126.01;1746843;81;21115;-85
2021/04/28 11:07:15;;;;;;;5.67;2.92;;;;;;;16.63;26.07;96113.98;1710449;83;21150;-84
2021/04/28 11:09:43;;;;;;;5.92;2.72;;;;;;;16.84;25.75;96130.80;1735235;81;21246;-84
2021/04/28 11:12:11;;;;;;;3.75;2.75;;;;;;;16.40;25.09;96123.45;1687905;83;21132;-84
2021/04/28 11:14:48;;;;;;;5.22;2.92;;;;;;;16.28;25.53;96126.84;1728057;82;21158;-84
2021/04/28 11:17:23;;;;;;;9.25;2.65;;;;;;;16.13;26.39;96119.41;1704921;83;21166;-84
2021/04/28 11:19:52;;;;;;;4.25;2.55;;;;;;;16.20;25.92;96119.13;1748325;80;21147;-84
2021/04/28 11:22:29;;;;;;;4.67;2.95;;;;;;;16.33;26.04;96122.09;1695071;83;21144;-85
2021/04/28 11:25:17;;;;;;;4.28;2.58;;;;;;;15.96;25.47;96125.66;1747826;81;21164;-84
2021/04/28 11:28:07;;;;;;;4.83;3.08;;;;;;;15.76;26.08;96116.47;1705022;83;21173;-83
2021/04/28 11:30:41;;;;;;;5.03;2.67;;;;;;;15.91;26.96;96109.81;1741830;80;21235;-84
2021/04/28 11:33:28;;;;;;;4.42;2.85;;;;;;;16.29;27.01;96105.67;1715654;83;21105;-83
2021/04/28 11:36:02;;;;;;;5.75;2.75;;;;;;;16.32;26.75;96110.36;1705295;83;21161;-84
2021/04/28 11:38:34;;;;;;;6.40;3.05;;;;;;;16.45;27.35;96103.18;1743585;80;21177;-84
2021/04/28 11:41:10;;;;;;;4.75;2.83;;;;;;;16.74;26.69;96099.64;1716692;81;21458;-83
2021/04/28 11:43:57;;;;;;;3.30;2.50;;;;;;;16.83;27.09;96099.02;1735319;82;21119;-84
2021/04/28 11:46:31;;;;;;;4.90;2.85;;;;;;;16.88;25.48;96092.88;1712988;83;21181;-84
2021/04/28 11:49:01;;;;;;;4.05;2.50;;;;;;;16.87;26.06;96087.86;1751168;80;21155;-84